createdAt,value
2019-05-28T00:06:30.543Z,4.30
2019-05-28T00:16:35.215Z,3.63
2019-05-28T00:26:40.222Z,3.63
2019-05-28T00:36:44.686Z,2.73
2019-05-28T00:46:50.572Z,3.23
2019-05-28T00:56:56.264Z,3.20
2019-05-28T01:07:01.057Z,3.37
2019-05-28T01:17:05.514Z,2.40
2019-05-28T01:27:10.397Z,3.07
2019-05-28T01:37:15.226Z,2.83
2019-05-28T01:47:19.582Z,2.30
2019-05-28T01:57:24.027Z,2.60
2019-05-28T02:07:28.465Z,2.53
2019-05-28T02:17:33.087Z,3.23
2019-05-28T02:27:37.460Z,3.77
2019-05-28T02:37:42.069Z,3.00
2019-05-28T02:47:46.490Z,3.97
2019-05-28T02:57:51.294Z,3.97
2019-05-28T03:07:55.851Z,4.00
2019-05-28T03:18:03.181Z,3.40
2019-05-28T03:28:07.625Z,4.43
2019-05-28T03:38:13.741Z,4.47
2019-05-28T03:48:18.367Z,3.90
2019-05-28T03:58:23.806Z,3.60
2019-05-28T04:08:28.189Z,3.80
2019-05-28T04:18:32.657Z,3.17
2019-05-28T04:28:37.555Z,3.60
2019-05-28T04:38:42.578Z,2.63
2019-05-28T04:48:46.971Z,2.70
2019-05-28T04:58:51.704Z,3.00
2019-05-28T05:08:56.900Z,3.63
2019-05-28T05:19:01.289Z,4.40
2019-05-28T05:29:05.765Z,4.30
2019-05-28T05:39:10.462Z,3.90
2019-05-28T05:49:15.117Z,3.70
2019-05-28T05:59:20.558Z,4.20
2019-05-28T06:09:25.233Z,2.90
2019-05-28T06:19:29.664Z,3.23
2019-05-28T06:29:34.597Z,3.40
2019-05-28T06:39:39.463Z,3.60
2019-05-28T06:49:44.293Z,3.40
2019-05-28T06:59:48.807Z,3.27
2019-05-28T07:09:53.644Z,3.40
2019-05-28T07:19:58.303Z,3.90
2019-05-28T07:30:03.514Z,4.60
2019-05-28T07:40:30.349Z,3.97
2019-05-28T07:50:22.422Z,3.70
2019-05-28T08:00:39.049Z,3.80
2019-05-28T08:10:45.538Z,4.20
2019-05-28T08:20:49.989Z,3.70
2019-05-28T08:30:54.753Z,3.77
2019-05-28T08:41:00.102Z,3.40
2019-05-28T08:51:04.634Z,4.80
2019-05-28T09:01:09.613Z,5.67
2019-05-28T09:11:14.602Z,6.20
2019-05-28T09:21:19.465Z,6.73
2019-05-28T09:31:24.289Z,7.30
2019-05-28T09:41:28.836Z,6.23
2019-05-28T09:51:33.737Z,4.60
2019-05-28T10:01:38.818Z,4.93
2019-05-28T10:11:44.257Z,4.53
2019-05-28T10:21:49.239Z,4.77
2019-05-28T10:31:54.296Z,3.50
2019-05-28T10:41:59.232Z,3.20
2019-05-28T10:52:04.209Z,2.27
2019-05-28T11:02:08.661Z,9.83
2019-05-28T11:12:13.785Z,1.70
2019-05-28T11:22:18.784Z,2.37
2019-05-28T11:32:24.621Z,1.90
2019-05-28T11:42:29.077Z,3.60
2019-05-28T11:52:33.968Z,3.00
2019-05-28T12:02:40.507Z,2.10
2019-05-28T12:12:45.796Z,3.30
2019-05-28T12:23:08.903Z,1.30
2019-05-28T12:32:56.816Z,1.30
2019-05-28T12:43:01.438Z,1.10
2019-05-28T12:53:06.416Z,1.30
2019-05-28T13:03:11.357Z,1.43
2019-05-28T13:13:15.864Z,1.63
2019-05-28T13:23:20.293Z,1.60
2019-05-28T13:33:25.174Z,1.70
2019-05-28T13:43:30.287Z,1.80
2019-05-28T13:53:35.132Z,1.87
2019-05-28T14:03:41.698Z,1.70
2019-05-28T14:13:46.828Z,1.60
2019-05-28T14:23:51.792Z,2.10
2019-05-28T14:33:56.629Z,1.60
2019-05-28T14:44:01.247Z,1.97
2019-05-28T14:54:05.732Z,2.00
2019-05-28T15:04:10.704Z,1.90
2019-05-28T15:14:15.489Z,1.90
2019-05-28T15:24:20.058Z,2.10
2019-05-28T15:34:24.489Z,1.80
2019-05-28T15:44:30.961Z,1.90
2019-05-28T15:54:35.642Z,1.77
2019-05-28T16:04:40.273Z,1.70
2019-05-28T16:14:47.801Z,1.47
2019-05-28T16:24:52.508Z,1.33
2019-05-28T16:34:57.208Z,1.43
2019-05-28T16:45:04.307Z,1.30
2019-05-28T16:55:16.686Z,1.40
2019-05-28T17:05:21.219Z,1.30
2019-05-28T17:15:26.253Z,1.20
2019-05-28T17:25:31.307Z,1.10
2019-05-28T17:35:36.227Z,1.73
2019-05-28T17:45:41.031Z,1.20
2019-05-28T17:55:48.708Z,1.27
2019-05-28T18:05:55.338Z,2.17
2019-05-28T18:16:00.501Z,4.90
2019-05-28T18:26:06.878Z,2.43
2019-05-28T18:36:13.067Z,2.57
2019-05-28T18:46:18.740Z,2.60
2019-05-28T18:56:23.436Z,2.70
2019-05-28T19:06:28.083Z,2.70
2019-05-28T19:16:33.170Z,3.00
2019-05-28T19:26:37.956Z,2.77
2019-05-28T19:36:42.915Z,2.70
2019-05-28T19:46:47.949Z,2.63
2019-05-28T19:56:53.093Z,2.33
2019-05-28T20:06:57.685Z,2.60
2019-05-28T20:17:02.673Z,2.30
2019-05-28T20:27:07.575Z,2.50
2019-05-28T20:37:12.701Z,2.27
2019-05-28T20:47:17.289Z,1.93
2019-05-28T20:55:48.465Z,1.62
2019-05-28T20:56:18.560Z,1.85
2019-05-28T20:56:49.813Z,2.20
2019-05-28T20:57:17.516Z,2.17
2019-05-28T20:57:47.059Z,1.60
2019-05-28T20:58:16.193Z,1.85
2019-05-28T20:58:45.071Z,2.00
2019-05-28T20:59:13.626Z,2.08
2019-05-28T20:59:42.000Z,1.77
2019-05-28T21:00:11.399Z,1.75
2019-05-28T21:00:40.272Z,1.77
2019-05-28T21:01:21.239Z,1.80
2019-05-28T21:01:49.682Z,1.80
2019-05-28T21:02:19.866Z,1.67
2019-05-28T21:02:49.589Z,1.87
2019-05-28T21:03:18.559Z,1.72
2019-05-28T21:03:47.804Z,1.77
2019-05-28T21:04:17.285Z,1.62
2019-05-28T21:04:46.252Z,1.95
2019-05-28T21:05:15.532Z,1.82
2019-05-28T21:05:43.948Z,1.47
2019-05-28T21:06:14.084Z,1.67
2019-05-28T21:06:43.290Z,1.50
2019-05-28T21:07:11.922Z,1.45
2019-05-28T21:07:40.583Z,1.80
2019-05-28T21:08:09.510Z,1.52
2019-05-28T21:08:38.673Z,1.55
2019-05-28T21:09:08.059Z,1.80
2019-05-28T21:09:37.146Z,1.47
2019-05-28T21:10:06.862Z,1.50
2019-05-28T21:10:35.893Z,1.50
2019-05-28T21:11:05.239Z,1.82
2019-05-28T21:11:34.908Z,1.50
2019-05-28T21:12:05.438Z,1.60
2019-05-28T21:12:43.740Z,1.50
2019-05-28T21:13:08.184Z,1.40
2019-05-28T21:13:36.853Z,1.50
2019-05-28T21:14:05.847Z,1.32
2019-05-28T21:14:36.695Z,1.20
2019-05-28T21:15:10.013Z,1.37
2019-05-28T21:15:38.533Z,1.40
2019-05-28T21:16:07.348Z,1.52
2019-05-28T21:16:35.953Z,1.50
2019-05-28T21:17:05.644Z,1.27
2019-05-28T21:17:33.943Z,1.50
2019-05-28T21:18:03.054Z,1.57
2019-05-28T21:18:32.948Z,1.50
2019-05-28T21:19:01.812Z,1.60
2019-05-28T21:19:30.091Z,1.70
2019-05-28T21:19:59.541Z,1.40
2019-05-28T21:20:28.084Z,1.80
2019-05-28T21:20:57.643Z,1.50
2019-05-28T21:21:26.591Z,1.50
2019-05-28T21:21:55.725Z,1.30
2019-05-28T21:22:26.997Z,1.10
2019-05-28T21:22:55.856Z,0.98
2019-05-28T21:23:24.668Z,1.30
2019-05-28T21:23:53.817Z,1.27
2019-05-28T21:24:22.712Z,1.20
2019-05-28T21:24:52.032Z,1.30
2019-05-28T21:25:20.238Z,1.10
2019-05-28T21:25:50.056Z,1.10
2019-05-28T21:26:19.363Z,1.25
2019-05-28T21:26:48.095Z,1.10
2019-05-28T21:27:17.306Z,1.12
2019-05-28T21:27:46.496Z,1.32
2019-05-28T21:28:15.323Z,1.10
2019-05-28T21:28:44.417Z,1.20
2019-05-28T21:29:12.902Z,1.10
2019-05-28T21:29:42.819Z,1.20
2019-05-28T21:30:11.769Z,1.00
2019-05-28T21:30:43.345Z,1.30
2019-05-28T21:31:11.627Z,1.07
2019-05-28T21:31:40.780Z,1.20
2019-05-28T21:32:09.652Z,1.00
2019-05-28T21:32:38.553Z,1.30
2019-05-28T21:33:07.286Z,1.02
2019-05-28T21:33:36.840Z,1.10
2019-05-28T21:34:05.526Z,1.27
2019-05-28T21:34:34.504Z,1.02
2019-05-28T21:35:04.822Z,1.00
2019-05-28T21:35:36.446Z,1.22
2019-05-28T21:36:06.012Z,1.07
2019-05-28T21:36:35.536Z,1.00
2019-05-28T21:37:05.722Z,1.00
2019-05-28T21:37:35.449Z,0.93
2019-05-28T21:38:06.580Z,0.98
2019-05-28T21:38:35.499Z,1.00
2019-05-28T21:39:05.143Z,0.93
2019-05-28T21:39:34.134Z,1.07
2019-05-28T21:40:03.731Z,0.90
2019-05-28T21:40:32.549Z,0.85
2019-05-28T21:41:01.792Z,0.90
2019-05-28T21:41:30.954Z,0.70
2019-05-28T21:42:01.394Z,0.95
2019-05-28T21:42:30.203Z,0.80
2019-05-28T21:43:06.170Z,0.90
2019-05-28T21:43:29.473Z,0.90
2019-05-28T21:44:00.099Z,0.80
2019-05-28T21:44:29.342Z,1.20
2019-05-28T21:44:58.140Z,1.05
2019-05-28T21:45:27.480Z,0.95
2019-05-28T21:45:56.451Z,1.10
2019-05-28T21:46:25.151Z,0.90
2019-05-28T21:46:54.190Z,0.90
2019-05-28T21:47:23.252Z,1.00
2019-05-28T21:47:52.521Z,0.98
2019-05-28T21:48:21.893Z,1.12
2019-05-28T21:48:50.465Z,0.90
2019-05-28T21:49:19.334Z,1.00
2019-05-28T21:49:48.163Z,1.10
2019-05-28T21:50:17.955Z,0.88
2019-05-28T21:50:46.354Z,1.12
2019-05-28T21:51:15.663Z,0.93
2019-05-28T21:51:44.999Z,1.00
2019-05-28T21:52:13.544Z,1.15
2019-05-28T21:52:42.180Z,0.95
2019-05-28T21:53:11.376Z,1.10
2019-05-28T21:53:40.271Z,0.90
2019-05-28T21:54:09.166Z,0.98
2019-05-28T21:54:37.385Z,0.90
2019-05-28T21:55:11.244Z,1.00
2019-05-28T21:55:41.747Z,0.90
2019-05-28T21:56:11.439Z,0.90
2019-05-28T21:56:40.655Z,0.82
2019-05-28T21:57:10.329Z,0.70
2019-05-28T21:57:41.566Z,0.80
2019-05-28T21:58:10.810Z,0.75
2019-05-28T21:58:39.516Z,1.10
2019-05-28T21:59:09.533Z,0.90
2019-05-28T21:59:41.231Z,0.93
2019-05-28T22:00:23.379Z,0.70
2019-05-28T22:00:57.946Z,0.90
2019-05-28T22:01:29.015Z,1.00
2019-05-28T22:01:58.147Z,0.90
2019-05-28T22:02:26.760Z,0.90
2019-05-28T22:02:58.515Z,1.00
2019-05-28T22:03:27.552Z,0.90
2019-05-28T22:03:57.372Z,1.00
2019-05-28T22:04:25.984Z,0.70
2019-05-28T22:04:57.305Z,0.80
2019-05-28T22:05:27.243Z,1.10
2019-05-28T22:05:57.880Z,0.90
2019-05-28T22:06:26.372Z,0.90
2019-05-28T22:06:55.326Z,0.80
2019-05-28T22:07:24.579Z,1.02
2019-05-28T22:07:55.294Z,1.00
2019-05-28T22:08:24.171Z,0.75
2019-05-28T22:08:53.412Z,0.90
2019-05-28T22:09:22.262Z,0.88
2019-05-28T22:09:51.982Z,0.90
2019-05-28T22:10:20.637Z,1.00
2019-05-28T22:10:50.051Z,1.70
2019-05-28T22:11:18.879Z,1.77
2019-05-28T22:11:49.587Z,1.70
2019-05-28T22:12:20.653Z,1.77
2019-05-28T22:12:49.752Z,1.80
2019-05-28T22:13:22.413Z,1.50
2019-05-28T22:13:50.041Z,1.50
2019-05-28T22:14:20.201Z,1.40
2019-05-28T22:14:49.191Z,1.40
2019-05-28T22:15:18.020Z,1.60
2019-05-28T22:15:46.982Z,1.57
2019-05-28T22:16:16.112Z,1.70
2019-05-28T22:16:44.977Z,1.77
2019-05-28T22:17:14.794Z,1.77
2019-05-28T22:17:43.985Z,1.80
2019-05-28T22:18:12.623Z,1.80
2019-05-28T22:18:41.615Z,2.20
2019-05-28T22:19:11.605Z,1.92
2019-05-28T22:19:43.212Z,1.90
2019-05-28T22:20:11.793Z,1.80
2019-05-28T22:20:40.621Z,2.40
2019-05-28T22:21:09.755Z,2.58
2019-05-28T22:21:40.812Z,2.17
2019-05-28T22:22:09.740Z,2.30
2019-05-28T22:22:38.903Z,2.20
2019-05-28T22:23:08.790Z,2.30
2019-05-28T22:23:38.491Z,2.30
2019-05-28T22:24:07.033Z,2.50
2019-05-28T22:24:36.889Z,2.50
2019-05-28T22:25:09.242Z,2.65
2019-05-28T22:25:38.503Z,2.40
2019-05-28T22:26:06.823Z,2.20
2019-05-28T22:26:35.872Z,2.72
2019-05-28T22:27:05.006Z,2.90
2019-05-28T22:27:34.393Z,2.83
2019-05-28T22:28:03.002Z,2.58
2019-05-28T22:28:32.427Z,2.47
2019-05-28T22:29:04.557Z,2.47
2019-05-28T22:29:34.730Z,2.67
2019-05-28T22:30:05.898Z,2.55
2019-05-28T22:30:35.811Z,2.72
2019-05-28T22:31:05.101Z,2.60
2019-05-28T22:31:33.963Z,2.30
2019-05-28T22:32:02.860Z,2.50
2019-05-28T22:32:33.103Z,2.60
2019-05-28T22:33:04.338Z,2.77
2019-05-28T22:33:33.986Z,2.75
2019-05-28T22:34:03.093Z,2.80
2019-05-28T22:34:32.551Z,2.70
2019-05-28T22:35:04.010Z,2.60
2019-05-28T22:35:33.256Z,3.08
2019-05-28T22:36:01.568Z,3.20
2019-05-28T22:36:30.728Z,3.08
2019-05-28T22:37:00.478Z,3.30
2019-05-28T22:37:29.421Z,3.20
2019-05-28T22:37:59.133Z,3.33
2019-05-28T22:38:28.548Z,3.17
2019-05-28T22:39:08.983Z,3.00
2019-05-28T22:39:38.353Z,3.27
2019-05-28T22:40:08.561Z,2.80
2019-05-28T22:40:38.364Z,3.02
2019-05-28T22:41:07.109Z,2.92
2019-05-28T22:41:37.743Z,3.15
2019-05-28T22:42:06.447Z,2.80
2019-05-28T22:42:36.742Z,2.90
2019-05-28T22:43:06.858Z,2.80
2019-05-28T22:43:38.221Z,3.10
2019-05-28T22:44:07.162Z,2.98
2019-05-28T22:44:36.356Z,2.90
2019-05-28T22:45:07.548Z,2.83
2019-05-28T22:45:41.890Z,3.00
2019-05-28T22:46:07.351Z,2.85
2019-05-28T22:46:37.040Z,2.85
2019-05-28T22:47:07.321Z,2.80
2019-05-28T22:47:36.644Z,2.90
2019-05-28T22:48:07.760Z,3.30
2019-05-28T22:48:36.133Z,2.95
2019-05-28T22:49:05.698Z,3.20
2019-05-28T22:49:35.243Z,2.90
2019-05-28T22:50:19.495Z,2.50
2019-05-28T22:50:36.689Z,2.92
2019-05-28T22:51:05.908Z,3.00
2019-05-28T22:51:35.237Z,2.72
2019-05-28T22:52:03.966Z,2.60
2019-05-28T22:52:34.149Z,2.77
2019-05-28T22:53:03.904Z,2.60
2019-05-28T22:53:33.852Z,2.70
2019-05-28T22:54:03.793Z,2.65
2019-05-28T22:54:33.379Z,2.80
2019-05-28T22:55:03.849Z,2.58
2019-05-28T22:55:33.344Z,2.98
2019-05-28T22:56:04.940Z,2.40
2019-05-28T22:56:32.793Z,2.45
2019-05-28T22:57:04.067Z,2.55
2019-05-28T22:57:33.752Z,2.67
2019-05-28T22:58:02.349Z,2.45
2019-05-28T22:58:31.647Z,2.45
2019-05-28T22:59:00.922Z,2.58
2019-05-28T22:59:30.046Z,2.62
2019-05-28T22:59:58.525Z,2.90
2019-05-28T23:00:27.473Z,2.50
2019-05-28T23:00:56.661Z,2.55
2019-05-28T23:01:25.741Z,2.60
2019-05-28T23:01:54.094Z,2.70
2019-05-28T23:02:24.390Z,2.37
2019-05-28T23:02:53.320Z,2.52
2019-05-28T23:03:22.580Z,2.37
2019-05-28T23:03:51.176Z,2.42
2019-05-28T23:04:20.739Z,2.45
2019-05-28T23:04:49.996Z,2.27
2019-05-28T23:05:18.754Z,2.37
2019-05-28T23:05:47.268Z,2.40
2019-05-28T23:06:16.667Z,2.42
2019-05-28T23:06:45.596Z,2.20
2019-05-28T23:07:14.857Z,2.40
2019-05-28T23:07:43.455Z,2.25
2019-05-28T23:08:12.286Z,2.17
2019-05-28T23:08:42.511Z,2.40
2019-05-28T23:09:11.597Z,2.50
2019-05-28T23:09:40.944Z,2.50
2019-05-28T23:10:10.484Z,2.20
2019-05-28T23:10:39.394Z,2.15
2019-05-28T23:11:08.224Z,2.45
2019-05-28T23:11:36.517Z,2.25
2019-05-28T23:12:06.421Z,2.40
2019-05-28T23:12:36.681Z,2.30
2019-05-28T23:13:07.181Z,2.05
2019-05-28T23:13:46.344Z,2.40
2019-05-28T23:14:08.200Z,2.30
2019-05-28T23:14:37.769Z,2.75
2019-05-28T23:15:10.637Z,2.30
2019-05-28T23:15:39.156Z,2.87
2019-05-28T23:16:08.648Z,2.60
2019-05-28T23:16:37.437Z,2.80
2019-05-28T23:17:06.362Z,2.52
2019-05-28T23:17:34.668Z,2.30
2019-05-28T23:18:04.483Z,2.22
2019-05-28T23:18:34.002Z,2.80
2019-05-28T23:19:04.442Z,2.75
2019-05-28T23:19:33.098Z,2.72
2019-05-28T23:20:03.003Z,2.37
2019-05-28T23:20:32.602Z,2.80
2019-05-28T23:21:02.699Z,2.30
2019-05-28T23:21:31.029Z,2.45
2019-05-28T23:22:00.899Z,2.50
2019-05-28T23:22:29.828Z,2.67
2019-05-28T23:22:58.807Z,2.60
2019-05-28T23:23:28.483Z,2.77
2019-05-28T23:23:58.391Z,2.65
2019-05-28T23:24:27.234Z,2.45
2019-05-28T23:24:56.355Z,2.50
2019-05-28T23:25:24.675Z,2.83
2019-05-28T23:25:53.507Z,3.10
2019-05-28T23:26:23.095Z,2.92
2019-05-28T23:26:51.943Z,2.90
2019-05-28T23:27:20.293Z,3.10
2019-05-28T23:27:49.067Z,2.80
2019-05-28T23:28:17.656Z,3.45
2019-05-28T23:28:47.656Z,2.80
2019-05-28T23:29:16.480Z,3.00
2019-05-28T23:29:45.386Z,2.70
2019-05-28T23:30:24.400Z,3.10
2019-05-28T23:30:45.194Z,3.62
2019-05-28T23:31:14.446Z,3.83
2019-05-28T23:31:43.017Z,3.37
2019-05-28T23:32:12.697Z,3.20
2019-05-28T23:32:42.091Z,3.20
2019-05-28T23:33:12.976Z,3.08
2019-05-28T23:33:41.659Z,2.80
2019-05-28T23:34:10.436Z,3.30
2019-05-28T23:34:39.625Z,2.98
2019-05-28T23:35:08.752Z,3.02
2019-05-28T23:35:37.605Z,3.20
2019-05-28T23:36:06.564Z,3.30
2019-05-28T23:36:35.547Z,3.40
2019-05-28T23:37:04.810Z,3.33
2019-05-28T23:37:34.778Z,3.70
2019-05-28T23:38:03.611Z,3.15
2019-05-28T23:38:33.992Z,3.80
2019-05-28T23:39:02.836Z,3.33
2019-05-28T23:39:32.585Z,2.87
2019-05-28T23:40:01.354Z,3.30
2019-05-28T23:40:29.946Z,3.10
2019-05-28T23:40:58.935Z,4.00
2019-05-28T23:41:27.564Z,3.45
2019-05-28T23:41:56.861Z,3.20
2019-05-28T23:42:25.713Z,3.60
2019-05-28T23:42:54.629Z,3.30
2019-05-28T23:43:23.722Z,3.33
2019-05-28T23:44:01.619Z,3.62
2019-05-28T23:44:22.895Z,2.92
2019-05-28T23:44:51.109Z,3.67
2019-05-28T23:45:20.110Z,3.72
2019-05-28T23:45:49.276Z,3.87
2019-05-28T23:46:18.424Z,3.62
2019-05-28T23:46:46.678Z,3.55
2019-05-28T23:47:15.897Z,3.50
2019-05-28T23:47:45.135Z,3.42
2019-05-28T23:48:17.877Z,3.35
2019-05-28T23:48:44.521Z,3.50
2019-05-28T23:49:14.379Z,4.10
2019-05-28T23:49:43.711Z,4.15
2019-05-28T23:50:17.551Z,3.50
2019-05-28T23:50:42.967Z,3.90
2019-05-28T23:51:12.588Z,3.47
2019-05-28T23:51:42.023Z,3.47
2019-05-28T23:52:11.021Z,3.35
2019-05-28T23:52:39.365Z,3.80
2019-05-28T23:53:09.605Z,3.55
2019-05-28T23:53:39.022Z,3.50
2019-05-28T23:54:07.865Z,3.17
2019-05-28T23:54:37.081Z,3.37
2019-05-28T23:55:07.764Z,3.30
2019-05-28T23:55:36.774Z,3.42
2019-05-28T23:56:07.601Z,3.15
2019-05-28T23:56:35.997Z,3.62
2019-05-28T23:57:05.835Z,3.45
2019-05-28T23:57:34.742Z,4.00
2019-05-28T23:58:05.656Z,3.30
2019-05-28T23:58:34.117Z,3.35
2019-05-28T23:59:02.937Z,3.83
2019-05-28T23:59:31.807Z,3.72
